createdAt,value
2018-06-15T00:01:08.684Z,16.20
2018-06-15T00:03:37.941Z,16.20
2018-06-15T00:06:07.218Z,16.30
2018-06-15T00:08:36.517Z,16.30
2018-06-15T00:11:05.860Z,16.30
2018-06-15T00:13:35.082Z,16.30
2018-06-15T00:16:04.331Z,16.30
2018-06-15T00:18:33.666Z,16.30
2018-06-15T00:21:02.956Z,16.30
2018-06-15T00:23:32.366Z,16.30
2018-06-15T00:26:01.656Z,16.30
2018-06-15T00:28:30.966Z,16.30
2018-06-15T00:31:00.304Z,16.30
2018-06-15T00:33:29.533Z,16.30
2018-06-15T00:35:58.819Z,16.30
2018-06-15T00:38:28.063Z,16.30
2018-06-15T00:40:57.314Z,16.30
2018-06-15T00:43:26.550Z,16.30
2018-06-15T00:45:55.815Z,16.30
2018-06-15T00:48:25.051Z,16.30
2018-06-15T00:50:54.619Z,16.30
2018-06-15T00:53:23.895Z,16.30
2018-06-15T00:55:53.146Z,16.30
2018-06-15T00:58:22.447Z,16.30
2018-06-15T01:00:51.736Z,16.30
2018-06-15T01:03:21.047Z,16.30
2018-06-15T01:05:50.301Z,16.30
2018-06-15T01:08:19.560Z,16.30
2018-06-15T01:10:48.822Z,16.40
2018-06-15T01:13:18.113Z,16.30
2018-06-15T01:15:47.597Z,16.30
2018-06-15T01:18:17.758Z,16.30
2018-06-15T01:20:47.036Z,16.30
2018-06-15T01:23:16.256Z,16.30
2018-06-15T01:25:45.515Z,16.30
2018-06-15T01:28:14.818Z,16.30
2018-06-15T01:30:44.085Z,16.30
2018-06-15T01:33:13.344Z,16.30
2018-06-15T01:35:42.671Z,16.30
2018-06-15T01:38:11.918Z,16.30
2018-06-15T01:40:41.132Z,16.20
2018-06-15T01:43:10.489Z,16.20
2018-06-15T01:48:08.677Z,16.20
2018-06-15T01:50:37.959Z,16.20
2018-06-15T01:53:08.118Z,16.10
2018-06-15T01:55:37.439Z,16.10
2018-06-15T01:58:06.681Z,16.10
2018-06-15T02:00:35.944Z,16.10
2018-06-15T02:03:05.213Z,16.10
2018-06-15T02:05:34.430Z,16.10
2018-06-15T02:08:03.725Z,16.10
2018-06-15T02:10:33.060Z,16.10
2018-06-15T02:13:02.312Z,16.10
2018-06-15T02:15:31.569Z,16.10
2018-06-15T02:18:00.914Z,16.00
2018-06-15T02:20:30.188Z,16.10
2018-06-15T02:22:59.458Z,16.00
2018-06-15T02:25:28.748Z,16.00
2018-06-15T02:27:57.990Z,16.00
2018-06-15T02:30:27.314Z,16.00
2018-06-15T02:32:56.597Z,16.00
2018-06-15T02:35:25.955Z,16.00
2018-06-15T02:37:55.180Z,16.00
2018-06-15T02:40:24.446Z,16.00
2018-06-15T02:42:53.728Z,16.00
2018-06-15T02:45:23.070Z,16.00
2018-06-15T02:47:52.349Z,16.00
2018-06-15T02:50:28.419Z,16.00
2018-06-15T02:52:57.814Z,15.90
2018-06-15T02:55:27.134Z,15.90
2018-06-15T02:57:56.413Z,15.90
2018-06-15T03:00:25.898Z,15.90
2018-06-15T03:02:55.204Z,16.00
2018-06-15T03:05:24.573Z,15.90
2018-06-15T03:07:53.855Z,15.90
2018-06-15T03:10:23.169Z,15.90
2018-06-15T03:12:52.455Z,16.00
2018-06-15T03:15:21.905Z,16.00
2018-06-15T03:17:51.286Z,16.00
2018-06-15T03:20:20.646Z,16.00
2018-06-15T03:22:50.094Z,16.00
2018-06-15T03:25:19.476Z,16.10
2018-06-15T03:27:48.845Z,16.10
2018-06-15T03:30:18.113Z,16.10
2018-06-15T03:32:47.395Z,16.10
2018-06-15T03:35:16.788Z,16.20
2018-06-15T03:37:46.257Z,16.20
2018-06-15T03:40:15.529Z,16.20
2018-06-15T03:42:44.925Z,16.20
2018-06-15T03:45:15.150Z,16.30
2018-06-15T03:47:44.445Z,16.30
2018-06-15T03:50:13.837Z,16.30
2018-06-15T03:52:43.284Z,16.30
2018-06-15T03:55:12.638Z,16.40
2018-06-15T03:57:41.995Z,16.40
2018-06-15T04:00:11.385Z,16.40
2018-06-15T04:02:40.754Z,16.50
2018-06-15T04:05:10.052Z,16.50
2018-06-15T04:07:48.016Z,16.50
2018-06-15T04:13:36.979Z,16.50
2018-06-15T04:16:22.053Z,16.50
2018-06-15T04:18:51.767Z,16.60
2018-06-15T04:21:21.271Z,16.60
2018-06-15T04:23:50.568Z,16.60
2018-06-15T04:26:19.767Z,16.70
2018-06-15T04:28:49.132Z,16.80
2018-06-15T04:31:18.425Z,16.80
2018-06-15T04:33:47.729Z,16.90
2018-06-15T04:36:16.953Z,17.00
2018-06-15T04:38:46.326Z,17.10
2018-06-15T04:41:15.571Z,17.10
2018-06-15T04:43:44.871Z,17.20
2018-06-15T04:46:14.160Z,17.30
2018-06-15T04:48:43.406Z,17.30
2018-06-15T04:51:12.762Z,17.40
2018-06-15T04:53:42.584Z,17.50
2018-06-15T04:56:11.883Z,17.50
2018-06-15T04:58:41.192Z,17.60
2018-06-15T05:01:10.488Z,17.60
2018-06-15T05:03:39.776Z,17.70
2018-06-15T05:06:09.050Z,17.80
2018-06-15T05:08:38.434Z,17.80
2018-06-15T05:11:08.022Z,17.90
2018-06-15T05:13:37.289Z,17.90
2018-06-15T05:16:06.709Z,18.00
2018-06-15T05:18:35.984Z,18.00
2018-06-15T05:21:05.366Z,18.10
2018-06-15T05:23:34.717Z,18.10
2018-06-15T05:26:04.017Z,18.10
2018-06-15T05:28:33.427Z,18.10
2018-06-15T05:31:02.895Z,18.20
2018-06-15T05:33:32.379Z,18.20
2018-06-15T05:39:53.484Z,18.30
2018-06-15T05:46:14.498Z,18.50
2018-06-15T05:52:01.407Z,18.60
2018-06-15T06:02:14.397Z,18.80
2018-06-15T06:04:54.145Z,18.80
2018-06-15T06:15:24.592Z,19.60
2018-06-15T06:17:54.117Z,19.80
2018-06-15T06:20:23.555Z,20.20
2018-06-15T06:22:52.868Z,20.50
2018-06-15T06:25:22.239Z,20.80
2018-06-15T06:27:51.702Z,21.00
2018-06-15T06:30:20.967Z,21.20
2018-06-15T06:32:50.257Z,21.20
2018-06-15T06:35:19.711Z,21.20
2018-06-15T06:37:49.039Z,21.30
2018-06-15T06:42:47.440Z,21.50
2018-06-15T06:45:16.799Z,21.50
2018-06-15T06:47:46.127Z,21.60
2018-06-15T06:50:15.507Z,21.70
2018-06-15T06:52:44.854Z,21.90
2018-06-15T06:57:43.075Z,22.10
2018-06-15T07:00:13.201Z,22.10
2018-06-15T07:02:42.482Z,22.10
2018-06-15T07:05:11.932Z,22.10
2018-06-15T07:07:41.691Z,22.10
2018-06-15T07:10:11.116Z,22.20
2018-06-15T07:12:40.667Z,22.30
2018-06-15T07:15:10.070Z,22.40
2018-06-15T07:17:39.361Z,22.70
2018-06-15T07:20:08.773Z,23.00
2018-06-15T07:22:38.208Z,23.50
2018-06-15T07:25:07.642Z,23.90
2018-06-15T07:27:37.023Z,24.40
2018-06-15T07:30:06.521Z,24.60
2018-06-15T07:32:35.864Z,25.20
2018-06-15T07:35:05.219Z,26.70
2018-06-15T07:37:34.755Z,28.40
2018-06-15T07:40:04.157Z,29.60
2018-06-15T07:42:33.535Z,30.10
2018-06-15T07:45:02.956Z,30.10
2018-06-15T07:47:32.355Z,29.90
2018-06-15T07:50:02.130Z,29.40
2018-06-15T07:52:31.582Z,28.70
2018-06-15T07:55:00.898Z,28.10
2018-06-15T07:57:50.462Z,27.70
2018-06-15T08:00:40.466Z,27.70
2018-06-15T08:03:20.402Z,28.10
2018-06-15T08:12:04.916Z,30.40
2018-06-15T08:14:39.791Z,31.10
2018-06-15T08:17:09.048Z,31.70
2018-06-15T08:19:38.553Z,31.60
2018-06-15T08:22:07.911Z,31.40
2018-06-15T08:24:37.259Z,31.20
2018-06-15T08:27:06.851Z,30.80
2018-06-15T08:35:55.819Z,29.70
2018-06-15T08:39:59.051Z,29.00
2018-06-15T08:42:38.151Z,29.40
2018-06-15T08:45:11.239Z,29.90
2018-06-15T08:50:41.990Z,30.50
2018-06-15T08:56:29.758Z,30.90
2018-06-15T08:59:07.322Z,31.40
2018-06-15T09:01:48.656Z,33.40
2018-06-15T09:04:26.114Z,35.10
2018-06-15T09:09:25.933Z,35.80
2018-06-15T09:11:55.363Z,35.70
2018-06-15T09:14:24.761Z,35.10
2018-06-15T09:16:54.024Z,34.60
2018-06-15T09:19:23.367Z,34.20
2018-06-15T09:21:59.335Z,33.80
2018-06-15T09:24:28.751Z,33.90
2018-06-15T09:26:58.038Z,34.10
2018-06-15T09:29:34.008Z,34.50
2018-06-15T09:32:03.416Z,34.70
2018-06-15T09:34:32.907Z,34.90
2018-06-15T09:37:02.263Z,35.30
2018-06-15T09:39:31.698Z,35.50
2018-06-15T09:42:01.114Z,35.20
2018-06-15T09:44:30.429Z,34.90
2018-06-15T09:46:59.907Z,34.20
2018-06-15T09:49:29.224Z,33.50
2018-06-15T09:51:58.717Z,32.60
2018-06-15T09:54:28.141Z,31.80
2018-06-15T09:56:57.611Z,31.30
2018-06-15T09:59:26.903Z,31.20
2018-06-15T10:01:56.671Z,31.20
2018-06-15T10:04:26.050Z,31.30
2018-06-15T10:06:55.401Z,31.30
2018-06-15T10:09:24.685Z,31.40
2018-06-15T10:11:54.187Z,31.60
2018-06-15T10:14:23.512Z,31.90
2018-06-15T10:16:52.817Z,32.70
2018-06-15T10:19:22.206Z,33.70
2018-06-15T10:21:51.760Z,34.70
2018-06-15T10:24:21.082Z,35.30
2018-06-15T10:26:50.433Z,35.00
2018-06-15T10:29:19.846Z,34.20
2018-06-15T10:31:49.355Z,33.40
2018-06-15T10:34:18.704Z,32.70
2018-06-15T10:36:48.039Z,31.90
2018-06-15T10:39:17.370Z,31.20
2018-06-15T10:41:46.809Z,30.60
2018-06-15T10:44:16.126Z,30.90
2018-06-15T10:46:45.521Z,31.60
2018-06-15T10:49:14.930Z,31.80
2018-06-15T10:51:44.530Z,31.90
2018-06-15T10:54:13.803Z,32.90
2018-06-15T10:56:43.122Z,33.90
2018-06-15T10:59:12.535Z,34.20
2018-06-15T11:01:41.896Z,34.70
2018-06-15T11:04:11.404Z,35.30
2018-06-15T11:06:40.800Z,35.40
2018-06-15T11:09:10.268Z,35.10
2018-06-15T11:11:39.732Z,34.60
2018-06-15T11:14:10.033Z,33.90
2018-06-15T11:16:55.088Z,33.20
2018-06-15T11:20:41.248Z,32.80
2018-06-15T11:23:10.491Z,32.40
2018-06-15T11:25:39.836Z,32.00
2018-06-15T11:28:09.225Z,32.20
2018-06-15T11:30:38.544Z,33.50
2018-06-15T11:33:07.855Z,35.50
2018-06-15T11:35:37.180Z,37.00
2018-06-15T11:38:06.463Z,37.30
2018-06-15T11:40:35.815Z,36.90
2018-06-15T11:43:05.135Z,36.20
2018-06-15T11:45:34.537Z,35.30
2018-06-15T11:48:03.823Z,34.50
2018-06-15T11:50:33.130Z,33.50
2018-06-15T11:53:02.462Z,32.80
2018-06-15T11:55:31.827Z,32.30
2018-06-15T11:58:01.221Z,32.20
2018-06-15T12:00:30.559Z,32.60
2018-06-15T12:02:59.837Z,33.10
2018-06-15T12:05:29.122Z,33.30
2018-06-15T12:07:58.479Z,33.30
2018-06-15T12:10:28.830Z,33.20
2018-06-15T12:12:58.107Z,33.00
2018-06-15T12:15:27.376Z,32.80
2018-06-15T12:17:56.665Z,32.40
2018-06-15T12:20:25.983Z,32.40
2018-06-15T12:22:56.237Z,32.60
2018-06-15T12:25:25.550Z,32.70
2018-06-15T12:27:54.874Z,33.00
2018-06-15T12:30:24.171Z,33.40
2018-06-15T12:32:53.515Z,33.50
2018-06-15T12:35:22.741Z,33.30
2018-06-15T12:37:52.147Z,33.20
2018-06-15T12:40:21.354Z,33.10
2018-06-15T12:42:50.696Z,32.80
2018-06-15T12:45:19.941Z,32.60
2018-06-15T12:47:49.221Z,32.50
2018-06-15T12:50:18.491Z,32.40
2018-06-15T12:52:47.923Z,32.30
2018-06-15T12:55:17.217Z,32.50
2018-06-15T12:57:46.509Z,33.10
2018-06-15T13:00:15.756Z,33.10
2018-06-15T13:02:45.074Z,33.50
2018-06-15T13:05:14.285Z,34.30
2018-06-15T13:07:43.540Z,34.80
2018-06-15T13:10:12.824Z,35.10
2018-06-15T13:12:42.140Z,35.10
2018-06-15T13:15:11.404Z,35.40
2018-06-15T13:17:40.662Z,36.10
2018-06-15T13:20:09.919Z,36.10
2018-06-15T13:22:39.187Z,35.60
2018-06-15T13:25:08.431Z,34.90
2018-06-15T13:27:37.661Z,34.20
2018-06-15T13:30:07.027Z,33.80
2018-06-15T13:32:37.275Z,33.60
2018-06-15T13:35:06.654Z,33.40
2018-06-15T13:37:36.036Z,33.30
2018-06-15T13:40:05.370Z,33.10
2018-06-15T13:42:35.477Z,32.90
2018-06-15T13:45:04.816Z,32.80
2018-06-15T13:47:34.140Z,32.80
2018-06-15T13:50:03.455Z,32.50
2018-06-15T13:52:32.728Z,32.10
2018-06-15T13:55:01.962Z,31.70
2018-06-15T13:57:31.200Z,31.50
2018-06-15T14:00:00.452Z,31.70
2018-06-15T14:02:29.744Z,32.10
2018-06-15T14:04:59.028Z,32.30
2018-06-15T14:07:28.332Z,32.40
2018-06-15T14:09:57.584Z,33.00
2018-06-15T14:12:26.851Z,33.30
2018-06-15T14:14:56.216Z,33.40
2018-06-15T14:17:26.937Z,32.80
2018-06-15T14:19:56.707Z,32.00
2018-06-15T14:22:27.583Z,31.30
2018-06-15T14:24:57.548Z,30.80
2018-06-15T14:27:27.519Z,30.60
2018-06-15T14:29:58.519Z,30.70
2018-06-15T14:32:28.600Z,30.50
2018-06-15T14:34:58.473Z,30.20
2018-06-15T14:37:29.424Z,29.70
2018-06-15T14:39:59.301Z,29.30
2018-06-15T14:42:28.938Z,28.80
2018-06-15T14:44:58.855Z,28.40
2018-06-15T14:47:28.401Z,28.10
2018-06-15T14:49:58.082Z,27.70
2018-06-15T14:52:27.585Z,27.60
2018-06-15T14:54:56.977Z,27.60
2018-06-15T14:57:26.416Z,27.90
2018-06-15T14:59:55.749Z,28.40
2018-06-15T15:04:54.091Z,28.70
2018-06-15T15:07:23.415Z,28.70
2018-06-15T15:09:52.739Z,29.10
2018-06-15T15:12:22.060Z,29.30
2018-06-15T15:14:51.474Z,29.40
2018-06-15T15:17:20.814Z,29.60
2018-06-15T15:19:52.350Z,29.60
2018-06-15T15:22:22.298Z,29.40
2018-06-15T15:24:52.004Z,29.20
2018-06-15T15:27:21.616Z,29.00
2018-06-15T15:29:50.990Z,28.80
2018-06-15T15:32:21.535Z,28.70
2018-06-15T15:34:51.042Z,28.60
2018-06-15T15:37:29.751Z,28.50
2018-06-15T15:40:00.890Z,28.40
2018-06-15T15:42:30.582Z,28.30
2018-06-15T15:45:00.671Z,28.10
2018-06-15T15:47:35.059Z,27.90
2018-06-15T15:50:05.642Z,27.90
2018-06-15T15:52:35.268Z,27.80
2018-06-15T15:55:09.403Z,27.80
2018-06-15T15:57:39.127Z,27.80
2018-06-15T16:00:08.668Z,27.70
2018-06-15T16:02:38.125Z,27.70
2018-06-15T16:05:07.777Z,27.70
2018-06-15T16:07:37.770Z,27.70
2018-06-15T16:10:07.585Z,27.60
2018-06-15T16:12:37.606Z,27.50
2018-06-15T16:15:07.006Z,27.30
2018-06-15T16:17:36.531Z,27.20
2018-06-15T16:20:05.924Z,27.10
2018-06-15T16:22:35.207Z,27.00
2018-06-15T16:25:04.691Z,27.10
2018-06-15T16:27:34.096Z,27.00
2018-06-15T16:30:03.501Z,27.00
2018-06-15T16:32:32.810Z,26.90
2018-06-15T16:35:02.112Z,26.80
2018-06-15T16:37:31.479Z,26.70
2018-06-15T16:40:00.929Z,26.70
2018-06-15T16:42:30.420Z,26.70
2018-06-15T16:45:00.264Z,26.50
2018-06-15T16:47:30.105Z,26.40
2018-06-15T16:49:59.601Z,26.30
2018-06-15T16:52:29.114Z,26.10
2018-06-15T16:54:58.946Z,25.90
2018-06-15T16:57:29.689Z,25.70
2018-06-15T16:59:59.543Z,25.60
2018-06-15T17:02:29.408Z,25.50
2018-06-15T17:04:58.743Z,25.40
2018-06-15T17:09:57.414Z,25.20
2018-06-15T17:12:26.925Z,25.10
2018-06-15T17:14:56.448Z,24.90
2018-06-15T17:17:25.856Z,24.70
2018-06-15T17:19:55.290Z,24.70
2018-06-15T17:22:25.973Z,24.60
2018-06-15T17:24:55.740Z,24.60
2018-06-15T17:27:25.574Z,24.60
2018-06-15T17:29:55.028Z,24.70
2018-06-15T17:32:24.995Z,24.60
2018-06-15T17:34:55.008Z,24.50
2018-06-15T17:37:26.881Z,24.40
2018-06-15T17:39:56.623Z,24.40
2018-06-15T17:42:26.320Z,24.40
2018-06-15T17:47:31.547Z,24.40
2018-06-15T17:50:04.134Z,24.40
2018-06-15T17:52:33.785Z,24.30
2018-06-15T17:55:03.143Z,24.30
2018-06-15T17:57:35.948Z,24.30
2018-06-15T18:00:05.843Z,24.20
2018-06-15T18:02:35.653Z,24.20
2018-06-15T18:05:23.812Z,24.10
2018-06-15T18:08:02.758Z,24.10
2018-06-15T18:10:39.399Z,24.10
2018-06-15T18:13:22.188Z,24.00
2018-06-15T18:16:59.228Z,23.90
2018-06-15T18:22:12.656Z,23.60
2018-06-15T18:24:50.871Z,23.50
2018-06-15T18:27:29.621Z,23.40
2018-06-15T18:32:55.800Z,23.20
2018-06-15T18:35:27.105Z,23.10
2018-06-15T18:37:59.092Z,23.10
2018-06-15T18:40:31.737Z,23.10
2018-06-15T18:43:03.000Z,23.00
2018-06-15T18:45:43.783Z,23.00
2018-06-15T18:48:20.126Z,23.00
2018-06-15T18:50:50.339Z,22.90
2018-06-15T18:53:19.815Z,22.80
2018-06-15T18:58:18.403Z,22.70
2018-06-15T19:00:47.978Z,22.60
2018-06-15T19:03:17.469Z,22.50
2018-06-15T19:05:46.954Z,22.50
2018-06-15T19:08:16.857Z,22.30
2018-06-15T19:10:47.402Z,22.30
2018-06-15T19:13:17.938Z,22.20
2018-06-15T19:15:48.716Z,22.10
2018-06-15T19:18:18.888Z,21.90
2018-06-15T19:20:49.628Z,21.90
2018-06-15T19:23:19.649Z,21.80
2018-06-15T19:25:50.252Z,21.70
2018-06-15T19:28:20.972Z,21.60
2018-06-15T19:30:50.493Z,21.50
2018-06-15T19:33:19.913Z,21.50
2018-06-15T19:35:50.100Z,21.50
2018-06-15T19:38:20.325Z,21.40
2018-06-15T19:40:50.118Z,21.40
2018-06-15T19:43:19.881Z,21.40
2018-06-15T19:45:49.746Z,21.40
2018-06-15T19:48:19.727Z,21.40
2018-06-15T19:50:49.450Z,21.40
2018-06-15T19:53:19.446Z,21.40
2018-06-15T19:55:49.075Z,21.40
2018-06-15T19:58:19.224Z,21.40
2018-06-15T20:00:49.193Z,21.40
2018-06-15T20:03:25.622Z,21.30
2018-06-15T20:05:55.501Z,21.30
2018-06-15T20:08:25.011Z,21.20
2018-06-15T20:10:54.651Z,21.10
2018-06-15T20:13:24.449Z,21.10
2018-06-15T20:18:22.826Z,20.90
2018-06-15T20:23:21.704Z,20.80
2018-06-15T20:25:51.570Z,20.80
2018-06-15T20:28:21.191Z,20.70
2018-06-15T20:30:50.941Z,20.70
2018-06-15T20:33:20.839Z,20.70
2018-06-15T20:38:19.519Z,20.60
2018-06-15T20:40:49.135Z,20.60
2018-06-15T20:43:18.581Z,20.50
2018-06-15T20:45:47.987Z,20.50
2018-06-15T20:48:21.617Z,20.50
2018-06-15T20:50:51.149Z,20.50
2018-06-15T20:53:20.611Z,20.40
2018-06-15T20:55:49.952Z,20.40
2018-06-15T20:58:19.292Z,20.40
2018-06-15T21:00:49.088Z,20.40
2018-06-15T21:03:18.625Z,20.40
2018-06-15T21:05:48.397Z,20.30
2018-06-15T21:08:17.801Z,20.30
2018-06-15T21:10:47.141Z,20.30
2018-06-15T21:13:16.443Z,20.20
2018-06-15T21:15:45.817Z,20.20
2018-06-15T21:18:15.130Z,20.10
2018-06-15T21:20:44.530Z,20.10
2018-06-15T21:23:13.839Z,20.00
2018-06-15T21:25:43.229Z,19.90
2018-06-15T21:28:12.505Z,19.90
2018-06-15T21:30:41.792Z,19.80
2018-06-15T21:33:11.573Z,19.80
2018-06-15T21:35:40.934Z,19.70
2018-06-15T21:38:10.537Z,19.70
2018-06-15T21:40:39.866Z,19.60
2018-06-15T21:43:09.164Z,19.40
2018-06-15T21:45:38.482Z,19.40
2018-06-15T21:48:07.815Z,19.30
2018-06-15T21:50:37.088Z,19.20
2018-06-15T21:55:35.364Z,18.90
2018-06-15T21:58:04.700Z,18.80
2018-06-15T22:00:33.997Z,18.70
2018-06-15T22:03:03.336Z,18.60
2018-06-15T22:05:32.716Z,18.50
2018-06-15T22:08:02.014Z,18.40
2018-06-15T22:10:31.257Z,18.30
2018-06-15T22:13:00.645Z,18.20
2018-06-15T22:15:29.971Z,18.20
2018-06-15T22:17:59.260Z,18.10
2018-06-15T22:20:28.678Z,18.00
2018-06-15T22:22:57.998Z,18.00
2018-06-15T22:25:27.282Z,17.90
2018-06-15T22:27:56.548Z,17.80
2018-06-15T22:30:25.862Z,17.80
2018-06-15T22:35:23.999Z,17.70
2018-06-15T22:37:53.279Z,17.70
2018-06-15T22:40:22.551Z,17.60
2018-06-15T22:42:51.843Z,17.60
2018-06-15T22:45:21.103Z,17.60
2018-06-15T22:47:50.432Z,17.50
2018-06-15T22:50:19.751Z,17.50
2018-06-15T22:52:49.104Z,17.50
2018-06-15T22:55:18.352Z,17.50
2018-06-15T22:57:47.628Z,17.50
2018-06-15T23:00:17.781Z,17.50
2018-06-15T23:02:47.226Z,17.40
2018-06-15T23:05:16.493Z,17.40
2018-06-15T23:07:45.764Z,17.40
2018-06-15T23:10:15.039Z,17.30
2018-06-15T23:15:13.878Z,17.30
2018-06-15T23:17:43.116Z,17.20
2018-06-15T23:20:12.378Z,17.20
2018-06-15T23:22:41.603Z,17.20
2018-06-15T23:25:10.884Z,17.20
2018-06-15T23:27:40.139Z,17.10
2018-06-15T23:30:10.312Z,17.10
2018-06-15T23:32:39.556Z,17.00
2018-06-15T23:35:08.803Z,17.00
2018-06-15T23:37:38.113Z,16.90
2018-06-15T23:40:07.405Z,16.90
2018-06-15T23:42:36.662Z,16.90
2018-06-15T23:45:05.935Z,16.80
2018-06-15T23:47:35.247Z,16.80
2018-06-15T23:50:04.555Z,16.70
2018-06-15T23:52:33.780Z,16.60
2018-06-15T23:55:03.071Z,16.60
2018-06-15T23:57:32.342Z,16.50
